createdAt,value
2018-06-28T00:02:04.235Z,8.30
2018-06-28T00:04:32.749Z,6.87
2018-06-28T00:07:01.263Z,8.20
2018-06-28T00:09:29.670Z,8.00
2018-06-28T00:11:58.070Z,7.17
2018-06-28T00:14:26.457Z,6.90
2018-06-28T00:16:54.846Z,6.20
2018-06-28T00:19:23.339Z,5.93
2018-06-28T00:21:51.735Z,7.30
2018-06-28T00:24:20.116Z,7.20
2018-06-28T00:26:48.514Z,8.47
2018-06-28T00:29:16.886Z,6.80
2018-06-28T00:31:45.282Z,9.30
2018-06-28T00:34:13.641Z,7.77
2018-06-28T00:36:42.039Z,9.87
2018-06-28T00:39:11.507Z,9.33
2018-06-28T00:41:40.309Z,9.20
2018-06-28T00:44:09.387Z,10.90
2018-06-28T00:46:37.783Z,10.53
2018-06-28T00:49:06.795Z,9.77
2018-06-28T00:51:35.203Z,10.33
2018-06-28T00:54:03.595Z,9.43
2018-06-28T00:56:31.994Z,9.30
2018-06-28T00:59:00.380Z,10.37
2018-06-28T01:01:28.764Z,8.60
2018-06-28T01:03:57.138Z,10.13
2018-06-28T01:06:25.546Z,10.27
2018-06-28T01:08:53.918Z,9.90
2018-06-28T01:11:22.294Z,10.00
2018-06-28T01:13:50.704Z,8.47
2018-06-28T01:16:19.075Z,9.20
2018-06-28T01:18:47.467Z,9.30
2018-06-28T01:21:15.830Z,9.00
2018-06-28T01:23:44.233Z,8.83
2018-06-28T01:26:12.630Z,10.80
2018-06-28T01:28:41.034Z,9.63
2018-06-28T01:31:09.414Z,9.30
2018-06-28T01:33:37.813Z,11.17
2018-06-28T01:36:06.202Z,9.53
2018-06-28T01:38:34.621Z,11.77
2018-06-28T01:41:02.998Z,10.00
2018-06-28T01:43:42.698Z,9.60
2018-06-28T01:46:11.078Z,10.53
2018-06-28T01:48:39.558Z,10.43
2018-06-28T01:51:08.122Z,12.10
2018-06-28T01:53:36.530Z,11.03
2018-06-28T01:56:05.191Z,11.20
2018-06-28T01:58:33.598Z,11.93
2018-06-28T02:01:02.111Z,10.10
2018-06-28T02:03:30.522Z,11.50
2018-06-28T02:10:43.927Z,12.10
2018-06-28T02:13:12.366Z,11.60
2018-06-28T02:15:40.762Z,11.77
2018-06-28T02:18:09.753Z,11.03
2018-06-28T02:20:38.622Z,14.13
2018-06-28T02:23:07.022Z,11.47
2018-06-28T02:25:35.517Z,14.53
2018-06-28T02:28:03.902Z,12.80
2018-06-28T02:30:32.303Z,12.43
2018-06-28T02:33:00.681Z,14.90
2018-06-28T02:35:29.243Z,13.30
2018-06-28T02:37:57.915Z,13.57
2018-06-28T02:40:26.330Z,13.80
2018-06-28T02:42:54.709Z,14.33
2018-06-28T02:45:23.130Z,12.80
2018-06-28T02:47:51.507Z,12.33
2018-06-28T02:50:19.906Z,12.83
2018-06-28T02:52:48.283Z,12.33
2018-06-28T02:55:16.686Z,11.90
2018-06-28T02:57:45.062Z,11.43
2018-06-28T03:00:13.463Z,13.40
2018-06-28T03:02:41.851Z,13.20
2018-06-28T03:05:10.254Z,14.13
2018-06-28T03:07:38.626Z,12.60
2018-06-28T03:10:07.023Z,12.50
2018-06-28T03:12:35.427Z,13.10
2018-06-28T03:15:03.838Z,13.10
2018-06-28T03:17:32.235Z,16.00
2018-06-28T03:20:00.611Z,10.90
2018-06-28T03:22:29.010Z,14.00
2018-06-28T03:24:57.386Z,11.70
2018-06-28T03:27:25.790Z,13.57
2018-06-28T03:29:54.176Z,12.27
2018-06-28T03:32:22.575Z,10.30
2018-06-28T03:34:50.943Z,12.73
2018-06-28T03:37:19.342Z,11.20
2018-06-28T03:39:47.715Z,12.00
2018-06-28T03:42:16.164Z,10.67
2018-06-28T03:44:44.534Z,12.17
2018-06-28T03:47:12.939Z,10.60
2018-06-28T03:49:41.324Z,12.00
2018-06-28T03:52:09.731Z,11.53
2018-06-28T03:54:38.132Z,12.47
2018-06-28T03:57:06.530Z,11.07
2018-06-28T03:59:34.910Z,10.13
2018-06-28T04:02:03.315Z,10.80
2018-06-28T04:04:31.690Z,10.10
2018-06-28T04:07:00.090Z,9.03
2018-06-28T04:09:28.479Z,9.43
2018-06-28T04:11:56.866Z,9.13
2018-06-28T04:14:25.277Z,10.30
2018-06-28T04:16:53.738Z,8.87
2018-06-28T04:19:22.139Z,8.70
2018-06-28T04:21:50.528Z,9.10
2018-06-28T04:24:18.897Z,8.20
2018-06-28T04:26:47.286Z,8.53
2018-06-28T04:29:15.654Z,9.43
2018-06-28T04:31:44.137Z,9.30
2018-06-28T04:34:12.502Z,8.37
2018-06-28T04:36:40.879Z,8.63
2018-06-28T04:39:10.975Z,7.90
2018-06-28T04:41:39.533Z,8.33
2018-06-28T04:44:07.926Z,8.20
2018-06-28T04:46:36.294Z,7.67
2018-06-28T04:49:04.902Z,7.37
2018-06-28T04:51:33.272Z,7.80
2018-06-28T04:54:01.682Z,7.33
2018-06-28T04:56:30.063Z,8.40
2018-06-28T04:58:58.459Z,7.90
2018-06-28T05:01:26.825Z,7.80
2018-06-28T05:03:55.295Z,7.70
2018-06-28T05:06:23.662Z,9.10
2018-06-28T05:08:52.053Z,8.43
2018-06-28T05:11:20.425Z,7.70
2018-06-28T05:13:48.855Z,7.90
2018-06-28T05:16:17.227Z,8.30
2018-06-28T05:18:45.625Z,6.83
2018-06-28T05:21:13.991Z,6.53
2018-06-28T05:23:42.397Z,6.43
2018-06-28T05:26:11.363Z,6.83
2018-06-28T05:28:39.759Z,5.73
2018-06-28T05:31:08.122Z,5.97
2018-06-28T05:33:36.514Z,5.40
2018-06-28T05:36:04.891Z,6.70
2018-06-28T05:38:33.870Z,5.30
2018-06-28T05:41:02.243Z,6.87
2018-06-28T05:43:30.722Z,6.30
2018-06-28T05:45:59.228Z,6.37
2018-06-28T05:48:27.666Z,5.23
2018-06-28T05:50:56.034Z,6.80
2018-06-28T05:53:24.610Z,6.00
2018-06-28T05:55:52.990Z,6.27
2018-06-28T05:58:21.389Z,5.47
2018-06-28T06:00:49.786Z,4.67
2018-06-28T06:03:18.146Z,5.30
2018-06-28T06:05:46.546Z,5.67
2018-06-28T06:08:14.918Z,5.20
2018-06-28T06:10:43.307Z,5.90
2018-06-28T06:13:11.698Z,5.10
2018-06-28T06:15:40.102Z,4.50
2018-06-28T06:18:08.466Z,4.33
2018-06-28T06:20:36.867Z,4.87
2018-06-28T06:23:05.242Z,4.50
2018-06-28T06:25:33.633Z,4.97
2018-06-28T06:28:01.998Z,4.80
2018-06-28T06:30:30.410Z,4.97
2018-06-28T06:32:58.786Z,4.77
2018-06-28T06:35:27.178Z,4.63
2018-06-28T06:37:55.546Z,4.27
2018-06-28T06:40:23.954Z,4.53
2018-06-28T06:42:52.330Z,4.40
2018-06-28T06:45:20.726Z,4.40
2018-06-28T06:47:49.097Z,4.37
2018-06-28T06:50:17.490Z,4.77
2018-06-28T06:52:45.863Z,4.60
2018-06-28T06:55:14.278Z,3.90
2018-06-28T06:57:42.680Z,4.00
2018-06-28T07:00:11.079Z,3.70
2018-06-28T07:02:39.615Z,4.00
2018-06-28T07:05:07.882Z,4.10
2018-06-28T07:07:36.265Z,4.20
2018-06-28T07:10:04.735Z,3.30
2018-06-28T07:12:33.213Z,3.73
2018-06-28T07:15:01.680Z,4.57
2018-06-28T07:17:30.051Z,3.43
2018-06-28T07:19:58.462Z,3.03
2018-06-28T07:22:26.839Z,3.40
2018-06-28T07:24:55.199Z,3.50
2018-06-28T07:27:23.645Z,2.90
2018-06-28T07:29:52.010Z,3.40
2018-06-28T07:32:20.447Z,3.40
2018-06-28T07:34:48.819Z,3.40
2018-06-28T07:37:17.358Z,3.30
2018-06-28T07:39:45.730Z,3.03
2018-06-28T07:42:14.129Z,3.27
2018-06-28T07:44:42.513Z,3.10
2018-06-28T07:47:10.906Z,3.00
2018-06-28T07:49:39.434Z,3.20
2018-06-28T07:52:07.833Z,4.03
2018-06-28T07:54:36.194Z,3.30
2018-06-28T07:57:04.591Z,2.77
2018-06-28T07:59:33.115Z,3.07
2018-06-28T08:02:01.392Z,3.40
2018-06-28T08:04:29.784Z,2.70
2018-06-28T08:06:58.186Z,3.13
2018-06-28T08:09:26.560Z,3.30
2018-06-28T08:11:55.044Z,3.10
2018-06-28T08:14:23.534Z,3.20
2018-06-28T08:16:51.939Z,2.50
2018-06-28T08:19:20.384Z,2.80
2018-06-28T08:21:48.905Z,3.70
2018-06-28T08:24:17.267Z,3.00
2018-06-28T08:26:45.665Z,2.63
2018-06-28T08:29:14.209Z,3.10
2018-06-28T08:31:42.608Z,2.83
2018-06-28T08:34:10.979Z,3.17
2018-06-28T08:36:39.377Z,3.10
2018-06-28T08:39:08.760Z,2.10
2018-06-28T08:41:37.346Z,3.10
2018-06-28T08:44:06.158Z,4.10
2018-06-28T08:46:35.094Z,4.20
2018-06-28T08:49:03.652Z,3.70
2018-06-28T08:51:32.039Z,3.20
2018-06-28T08:54:00.409Z,2.90
2018-06-28T08:56:28.783Z,2.87
2018-06-28T08:58:57.175Z,3.40
2018-06-28T09:01:25.714Z,3.17
2018-06-28T09:03:54.139Z,3.10
2018-06-28T09:06:22.506Z,3.40
2018-06-28T09:08:50.898Z,2.43
2018-06-28T09:11:19.258Z,2.90
2018-06-28T09:13:47.667Z,2.80
2018-06-28T09:16:16.283Z,2.60
2018-06-28T09:18:45.118Z,3.07
2018-06-28T09:21:13.554Z,3.00
2018-06-28T09:23:41.971Z,2.60
2018-06-28T09:26:10.338Z,3.13
2018-06-28T09:28:38.730Z,3.33
2018-06-28T09:31:07.385Z,2.63
2018-06-28T09:33:35.797Z,2.60
2018-06-28T09:36:04.198Z,2.70
2018-06-28T09:38:32.595Z,2.90
2018-06-28T09:41:00.966Z,2.80
2018-06-28T09:43:29.353Z,2.77
2018-06-28T09:45:57.722Z,2.93
2018-06-28T09:48:26.110Z,2.90
2018-06-28T09:50:54.475Z,2.33
2018-06-28T09:53:22.866Z,2.83
2018-06-28T09:55:51.276Z,2.70
2018-06-28T09:58:19.678Z,3.53
2018-06-28T10:00:48.070Z,2.70
2018-06-28T10:03:16.458Z,2.67
2018-06-28T10:05:44.849Z,2.83
2018-06-28T10:08:13.224Z,2.80
2018-06-28T10:10:41.622Z,2.70
2018-06-28T10:13:10.044Z,2.93
2018-06-28T10:15:38.438Z,2.57
2018-06-28T10:18:06.884Z,2.80
2018-06-28T10:20:35.239Z,2.10
2018-06-28T10:23:03.626Z,2.70
2018-06-28T10:25:32.019Z,2.40
2018-06-28T10:28:00.387Z,2.77
2018-06-28T10:30:28.778Z,2.60
2018-06-28T10:32:57.155Z,2.60
2018-06-28T10:35:25.555Z,2.83
2018-06-28T10:37:53.918Z,3.23
2018-06-28T10:40:22.310Z,3.30
2018-06-28T10:42:50.677Z,2.70
2018-06-28T10:45:19.071Z,2.83
2018-06-28T10:47:47.444Z,2.80
2018-06-28T10:50:15.842Z,2.70
2018-06-28T10:52:44.218Z,3.33
2018-06-28T10:55:12.623Z,2.17
2018-06-28T10:57:41.007Z,2.27
2018-06-28T11:00:09.404Z,2.40
2018-06-28T11:02:37.774Z,2.63
2018-06-28T11:05:06.383Z,3.00
2018-06-28T11:07:34.749Z,4.23
2018-06-28T11:10:03.170Z,2.63
2018-06-28T11:12:31.546Z,2.23
2018-06-28T11:14:59.958Z,2.50
2018-06-28T11:17:28.335Z,2.80
2018-06-28T11:19:56.728Z,2.90
2018-06-28T11:22:25.285Z,2.80
2018-06-28T11:24:53.652Z,3.30
2018-06-28T11:27:22.115Z,3.20
2018-06-28T11:29:50.621Z,3.03
2018-06-28T11:32:19.126Z,3.30
2018-06-28T11:34:47.498Z,3.40
2018-06-28T11:37:15.891Z,2.53
2018-06-28T11:39:44.267Z,2.63
2018-06-28T11:42:12.659Z,2.70
2018-06-28T11:44:41.034Z,2.60
2018-06-28T11:47:09.710Z,3.27
2018-06-28T11:49:38.077Z,2.57
2018-06-28T11:52:06.465Z,2.90
2018-06-28T11:54:35.561Z,2.30
2018-06-28T11:57:03.970Z,2.87
2018-06-28T11:59:32.338Z,3.70
2018-06-28T12:02:00.726Z,3.00
2018-06-28T12:04:29.090Z,3.17
2018-06-28T12:06:57.528Z,3.07
2018-06-28T12:09:25.904Z,2.97
2018-06-28T12:11:54.289Z,3.03
2018-06-28T12:14:22.766Z,2.77
2018-06-28T12:16:51.243Z,2.90
2018-06-28T12:19:19.729Z,3.00
2018-06-28T12:21:48.158Z,2.33
2018-06-28T12:24:16.524Z,2.60
2018-06-28T12:26:45.023Z,2.50
2018-06-28T12:29:13.394Z,2.63
2018-06-28T12:31:42.444Z,2.80
2018-06-28T12:34:10.929Z,2.27
2018-06-28T12:36:39.332Z,2.97
2018-06-28T12:39:09.282Z,2.73
2018-06-28T12:41:37.754Z,3.07
2018-06-28T12:44:06.150Z,2.60
2018-06-28T12:47:47.206Z,2.70
2018-06-28T12:50:15.582Z,2.50
2018-06-28T12:52:52.757Z,3.07
2018-06-28T12:55:21.828Z,3.17
2018-06-28T12:57:50.678Z,2.83
2018-06-28T13:00:19.414Z,2.43
2018-06-28T13:02:47.797Z,2.73
2018-06-28T13:05:16.816Z,2.90
2018-06-28T13:07:45.222Z,2.87
2018-06-28T13:10:15.725Z,2.93
2018-06-28T13:12:44.188Z,2.63
2018-06-28T13:15:13.710Z,2.60
2018-06-28T13:17:42.271Z,2.93
2018-06-28T13:20:11.376Z,3.10
2018-06-28T13:22:40.254Z,2.50
2018-06-28T13:25:09.990Z,2.63
2018-06-28T13:27:38.454Z,2.30
2018-06-28T13:30:08.162Z,2.97
2018-06-28T13:32:36.534Z,2.63
2018-06-28T13:35:05.011Z,3.40
2018-06-28T13:37:33.378Z,3.07
2018-06-28T13:40:01.780Z,3.03
2018-06-28T13:42:30.150Z,2.73
2018-06-28T13:44:58.541Z,2.60
2018-06-28T13:47:26.906Z,2.60
2018-06-28T13:49:55.270Z,2.97
2018-06-28T13:52:23.667Z,2.57
2018-06-28T13:54:52.036Z,2.40
2018-06-28T13:57:20.427Z,2.40
2018-06-28T13:59:48.810Z,3.10
2018-06-28T14:02:17.210Z,2.67
2018-06-28T14:04:45.605Z,3.00
2018-06-28T14:07:14.006Z,2.43
2018-06-28T14:09:42.374Z,2.53
2018-06-28T14:12:10.778Z,2.40
2018-06-28T14:14:39.171Z,2.90
2018-06-28T14:17:07.562Z,2.43
2018-06-28T14:19:35.933Z,2.80
2018-06-28T14:22:04.335Z,2.60
2018-06-28T14:24:32.721Z,2.83
2018-06-28T14:27:01.998Z,2.80
2018-06-28T14:29:30.362Z,2.80
2018-06-28T14:31:58.760Z,2.97
2018-06-28T14:34:27.122Z,2.13
2018-06-28T14:36:55.523Z,2.60
2018-06-28T14:39:23.951Z,2.70
2018-06-28T14:41:52.406Z,2.33
2018-06-28T14:44:20.723Z,2.60
2018-06-28T14:46:49.118Z,2.40
2018-06-28T14:49:17.497Z,2.20
2018-06-28T14:51:45.897Z,2.80
2018-06-28T14:54:14.262Z,2.67
2018-06-28T14:56:42.653Z,2.60
2018-06-28T14:59:11.030Z,2.57
2018-06-28T15:01:39.428Z,2.60
2018-06-28T15:04:07.808Z,2.83
2018-06-28T15:06:36.218Z,2.73
2018-06-28T15:09:06.758Z,2.80
2018-06-28T15:11:35.130Z,2.43
2018-06-28T15:14:03.571Z,2.90
2018-06-28T15:16:31.942Z,2.67
2018-06-28T15:19:00.355Z,2.60
2018-06-28T15:21:28.737Z,2.10
2018-06-28T15:23:57.137Z,2.50
2018-06-28T15:26:25.510Z,2.50
2018-06-28T15:28:53.914Z,2.53
2018-06-28T15:31:22.315Z,2.80
2018-06-28T15:33:50.742Z,2.70
2018-06-28T15:36:19.186Z,2.50
2018-06-28T15:38:47.807Z,2.57
2018-06-28T15:41:16.362Z,2.97
2018-06-28T15:43:44.783Z,2.67
2018-06-28T15:46:13.156Z,2.77
2018-06-28T15:48:41.561Z,3.10
2018-06-28T15:51:09.942Z,2.90
2018-06-28T15:53:38.362Z,2.50
2018-06-28T15:56:06.765Z,2.57
2018-06-28T15:58:35.161Z,2.70
2018-06-28T16:01:03.548Z,2.13
2018-06-28T16:03:31.953Z,2.70
2018-06-28T16:06:00.445Z,2.43
2018-06-28T16:08:28.961Z,2.80
2018-06-28T16:10:57.339Z,2.40
2018-06-28T16:13:25.770Z,3.00
2018-06-28T16:15:54.159Z,2.40
2018-06-28T16:18:22.563Z,2.80
2018-06-28T16:20:51.028Z,2.87
2018-06-28T16:23:19.446Z,2.33
2018-06-28T16:25:47.838Z,2.63
2018-06-28T16:28:16.206Z,3.17
2018-06-28T16:30:44.630Z,2.60
2018-06-28T16:33:13.000Z,2.60
2018-06-28T16:35:41.403Z,2.60
2018-06-28T16:38:09.767Z,2.30
2018-06-28T16:40:38.767Z,2.60
2018-06-28T16:43:07.138Z,2.90
2018-06-28T16:45:35.538Z,2.43
2018-06-28T16:48:03.942Z,2.50
2018-06-28T16:50:32.350Z,2.47
2018-06-28T16:53:00.736Z,2.40
2018-06-28T16:55:29.154Z,2.07
2018-06-28T16:57:57.545Z,2.33
2018-06-28T17:00:25.981Z,2.47
2018-06-28T17:02:54.359Z,2.00
2018-06-28T17:05:22.750Z,2.03
2018-06-28T17:07:51.284Z,1.97
2018-06-28T17:10:19.577Z,1.80
2018-06-28T17:12:47.954Z,2.70
2018-06-28T17:15:16.386Z,2.23
2018-06-28T17:17:44.782Z,1.80
2018-06-28T17:20:13.214Z,2.20
2018-06-28T17:22:41.623Z,2.57
2018-06-28T17:25:10.064Z,2.10
2018-06-28T17:27:38.431Z,2.43
2018-06-28T17:30:07.015Z,2.03
2018-06-28T17:32:35.382Z,2.30
2018-06-28T17:35:03.807Z,2.03
2018-06-28T17:37:32.253Z,1.93
2018-06-28T17:40:00.607Z,1.93
2018-06-28T17:42:28.982Z,2.60
2018-06-28T17:44:57.377Z,1.70
2018-06-28T17:47:25.863Z,2.03
2018-06-28T17:49:54.283Z,2.10
2018-06-28T17:52:22.664Z,1.90
2018-06-28T17:54:51.026Z,2.20
2018-06-28T17:57:19.425Z,2.10
2018-06-28T17:59:47.793Z,1.80
2018-06-28T18:02:16.194Z,2.20
2018-06-28T18:04:44.565Z,2.30
2018-06-28T18:07:12.954Z,2.07
2018-06-28T18:09:41.338Z,2.33
2018-06-28T18:12:09.763Z,2.33
2018-06-28T18:14:38.218Z,2.27
2018-06-28T18:17:06.606Z,2.20
2018-06-28T18:22:28.455Z,1.90
2018-06-28T18:24:56.818Z,2.07
2018-06-28T18:27:25.387Z,2.47
2018-06-28T18:29:54.100Z,2.13
2018-06-28T18:32:22.539Z,2.40
2018-06-28T18:34:50.911Z,2.10
2018-06-28T18:37:19.302Z,2.40
2018-06-28T18:39:47.670Z,2.03
2018-06-28T18:42:16.058Z,2.50
2018-06-28T18:44:44.587Z,2.77
2018-06-28T18:47:13.045Z,2.47
2018-06-28T18:49:41.407Z,2.30
2018-06-28T18:52:09.822Z,2.27
2018-06-28T18:54:38.194Z,2.23
2018-06-28T18:57:06.597Z,1.70
2018-06-28T18:59:34.974Z,2.80
2018-06-28T19:02:03.450Z,2.50
2018-06-28T19:04:31.783Z,2.73
2018-06-28T19:07:00.180Z,2.37
2018-06-28T19:09:33.959Z,2.40
2018-06-28T19:12:02.387Z,2.57
2018-06-28T19:14:36.161Z,2.17
2018-06-28T19:17:04.567Z,2.40
2018-06-28T19:19:32.934Z,2.97
2018-06-28T19:22:06.791Z,2.63
2018-06-28T19:24:35.170Z,1.90
2018-06-28T19:27:03.607Z,3.20
2018-06-28T19:29:37.313Z,2.43
2018-06-28T19:32:11.151Z,2.40
2018-06-28T19:34:39.527Z,2.67
2018-06-28T19:37:11.414Z,2.20
2018-06-28T19:39:45.239Z,2.50
2018-06-28T19:42:19.051Z,2.07
2018-06-28T19:44:47.413Z,2.90
2018-06-28T19:47:15.774Z,2.50
2018-06-28T19:49:49.459Z,2.57
2018-06-28T19:52:23.197Z,2.87
2018-06-28T19:54:51.588Z,2.20
2018-06-28T19:57:19.950Z,3.70
2018-06-28T19:59:48.918Z,3.10
2018-06-28T20:02:22.724Z,2.67
2018-06-28T20:04:51.136Z,3.00
2018-06-28T20:07:19.506Z,3.10
2018-06-28T20:09:47.912Z,3.53
2018-06-28T20:12:21.618Z,3.50
2018-06-28T20:14:55.451Z,4.10
2018-06-28T20:17:29.130Z,3.03
2018-06-28T20:20:02.840Z,3.80
2018-06-28T20:22:31.210Z,4.60
2018-06-28T20:24:59.627Z,4.70
2018-06-28T20:27:33.366Z,4.47
2018-06-28T20:30:07.224Z,5.07
2018-06-28T20:32:41.014Z,3.47
2018-06-28T20:35:09.411Z,3.37
2018-06-28T20:37:37.791Z,4.20
2018-06-28T20:40:06.403Z,3.60
2018-06-28T20:42:34.775Z,3.80
2018-06-28T20:45:03.221Z,4.17
2018-06-28T20:47:31.590Z,4.27
2018-06-28T20:49:59.974Z,4.37
2018-06-28T20:52:28.339Z,4.17
2018-06-28T20:54:56.730Z,3.20
2018-06-28T20:57:25.106Z,3.30
2018-06-28T20:59:53.522Z,3.20
2018-06-28T21:02:21.910Z,3.13
2018-06-28T21:04:50.297Z,3.03
2018-06-28T21:07:18.686Z,2.93
2018-06-28T21:09:47.050Z,3.07
2018-06-28T21:12:15.433Z,3.13
2018-06-28T21:14:44.093Z,3.00
2018-06-28T21:17:12.515Z,3.43
2018-06-28T21:19:40.890Z,3.50
2018-06-28T21:22:09.285Z,3.30
2018-06-28T21:24:37.660Z,3.10
2018-06-28T21:27:06.066Z,3.47
2018-06-28T21:29:34.461Z,2.60
2018-06-28T21:32:02.880Z,2.53
2018-06-28T21:34:31.251Z,3.50
2018-06-28T21:36:59.646Z,2.70
2018-06-28T21:39:28.020Z,3.90
2018-06-28T21:41:56.410Z,3.30
2018-06-28T21:44:24.780Z,2.63
2018-06-28T21:46:53.212Z,3.30
2018-06-28T21:49:21.701Z,3.27
2018-06-28T21:51:50.094Z,3.00
2018-06-28T21:54:18.457Z,3.10
2018-06-28T21:56:46.842Z,2.67
2018-06-28T21:59:15.205Z,2.60
2018-06-28T22:01:48.746Z,3.20
2018-06-28T22:04:17.122Z,3.40
2018-06-28T22:06:45.734Z,3.40
2018-06-28T22:09:14.380Z,3.30
2018-06-28T22:11:42.962Z,3.90
2018-06-28T22:14:11.540Z,3.17
2018-06-28T22:16:39.913Z,3.70
2018-06-28T22:19:09.903Z,3.73
2018-06-28T22:21:38.298Z,2.93
2018-06-28T22:24:06.826Z,2.90
2018-06-28T22:26:35.196Z,2.80
2018-06-28T22:29:03.733Z,3.13
2018-06-28T22:31:32.106Z,2.60
2018-06-28T22:34:00.563Z,3.30
2018-06-28T22:36:28.901Z,2.57
2018-06-28T22:38:57.289Z,2.50
2018-06-28T22:41:25.651Z,3.60
2018-06-28T22:43:54.381Z,3.30
2018-06-28T22:46:22.741Z,3.73
2018-06-28T22:48:51.139Z,3.53
2018-06-28T22:51:19.515Z,2.87
2018-06-28T22:53:47.902Z,2.83
2018-06-28T22:56:16.270Z,3.53
2018-06-28T22:58:44.658Z,3.37
2018-06-28T23:01:13.026Z,3.40
2018-06-28T23:03:41.417Z,3.13
2018-06-28T23:06:09.853Z,2.70
2018-06-28T23:08:38.243Z,3.20
2018-06-28T23:11:06.615Z,3.20
2018-06-28T23:13:35.031Z,3.33
2018-06-28T23:16:03.401Z,3.40
2018-06-28T23:18:31.790Z,2.70
2018-06-28T23:21:00.154Z,3.70
2018-06-28T23:23:28.541Z,3.53
2018-06-28T23:25:56.908Z,3.23
2018-06-28T23:28:25.274Z,3.77
2018-06-28T23:30:53.675Z,3.70
2018-06-28T23:33:22.043Z,3.80
2018-06-28T23:35:50.431Z,2.97
2018-06-28T23:38:18.800Z,3.70
2018-06-28T23:40:47.202Z,3.73
2018-06-28T23:43:15.598Z,3.53
2018-06-28T23:45:43.990Z,3.20
2018-06-28T23:48:12.362Z,4.00
2018-06-28T23:50:40.758Z,4.53
2018-06-28T23:53:09.114Z,4.00
2018-06-28T23:55:37.499Z,4.37
2018-06-28T23:58:05.878Z,3.43
